Time;durP1;ratioP1;P1;durP2;ratioP2;P2;SDS_P1;SDS_P2;PMS_P1;PMS_P2;Temp;Humidity;BMP_temperature;BMP_pressure;BME280_temperature;BME280_humidity;BME280_pressure;Samples;Min_cycle;Max_cycle;Signal;HPM_P1;HPM_P2
2023/09/26 00:01:02;;;;;;;7.70;2.87;;;;;;;17.04;58.46;100481.81;5042181;28;20041;-75
2023/09/26 00:03:27;;;;;;;6.43;2.92;;;;;;;17.10;58.64;100486.16;5042009;28;20262;-75
2023/09/26 00:05:54;;;;;;;6.20;2.97;;;;;;;17.02;58.51;100489.53;5041853;28;20056;-75
2023/09/26 00:08:19;;;;;;;7.57;2.92;;;;;;;17.02;58.90;100484.03;5043424;28;20433;-75
2023/09/26 00:10:48;;;;;;;6.23;2.90;;;;;;;16.98;58.95;100491.22;5045677;28;20037;-75
2023/09/26 00:13:16;;;;;;;9.95;3.55;;;;;;;16.91;59.14;100495.16;5046041;28;20273;-75
2023/09/26 00:15:41;;;;;;;5.53;3.17;;;;;;;16.86;59.24;100497.94;5045836;28;20481;-74
2023/09/26 00:18:07;;;;;;;6.20;2.60;;;;;;;16.80;59.72;100491.66;5045842;28;20033;-75
2023/09/26 00:20:35;;;;;;;5.47;2.67;;;;;;;16.68;59.81;100492.03;5045553;28;20040;-75
2023/09/26 00:23:00;;;;;;;8.10;3.33;;;;;;;16.78;59.41;100491.13;5045937;28;20522;-75
2023/09/26 00:25:26;;;;;;;4.68;2.70;;;;;;;16.76;59.66;100492.53;5044910;28;20037;-75
2023/09/26 00:27:52;;;;;;;4.97;2.67;;;;;;;16.74;59.81;100497.50;5045207;28;20502;-75
2023/09/26 00:30:18;;;;;;;6.60;2.92;;;;;;;16.72;59.49;100494.22;5045272;28;20529;-75
2023/09/26 00:32:44;;;;;;;5.25;2.80;;;;;;;16.69;59.76;100485.44;5045096;28;20809;-75
2023/09/26 00:35:13;;;;;;;5.75;3.28;;;;;;;16.68;59.81;100496.72;5044643;28;20158;-75
2023/09/26 00:37:42;;;;;;;9.02;3.60;;;;;;;16.51;60.47;100486.13;5045090;28;20048;-75
2023/09/26 00:40:15;;;;;;;5.72;2.90;;;;;;;16.43;60.57;100491.13;5045614;28;20460;-75
2023/09/26 00:42:44;;;;;;;8.13;3.60;;;;;;;16.35;60.67;100489.00;5045746;28;20037;-76
2023/09/26 00:45:11;;;;;;;6.68;3.35;;;;;;;16.32;60.97;100489.56;5044104;28;20560;-75
2023/09/26 00:47:38;;;;;;;4.82;2.83;;;;;;;16.42;60.71;100494.16;5044776;28;20459;-75
2023/09/26 00:50:08;;;;;;;9.52;3.67;;;;;;;16.40;60.98;100488.97;5045301;28;20112;-75
2023/09/26 00:52:35;;;;;;;5.78;3.13;;;;;;;16.36;60.66;100490.63;5045026;28;20282;-74
2023/09/26 00:55:03;;;;;;;6.25;3.03;;;;;;;16.40;60.71;100486.22;5044016;28;20139;-75
2023/09/26 00:57:31;;;;;;;5.25;2.67;;;;;;;16.39;60.89;100484.59;5044976;28;20610;-75
2023/09/26 00:59:57;;;;;;;4.47;2.65;;;;;;;16.40;60.87;100479.88;5045513;28;20041;-75
2023/09/26 01:02:23;;;;;;;5.38;2.95;;;;;;;16.39;60.75;100479.09;5044787;28;20033;-75
2023/09/26 01:04:49;;;;;;;6.60;2.70;;;;;;;16.34;60.78;100482.69;5044377;28;20047;-75
2023/09/26 01:07:14;;;;;;;10.32;2.83;;;;;;;16.29;61.18;100481.91;5045183;28;20063;-75
2023/09/26 01:09:40;;;;;;;5.13;2.57;;;;;;;16.14;61.42;100480.91;5045051;28;20040;-75
2023/09/26 01:12:05;;;;;;;6.55;3.00;;;;;;;16.15;61.79;100485.28;5044999;28;20274;-75
2023/09/26 01:14:31;;;;;;;10.77;3.60;;;;;;;16.18;61.40;100483.88;5044336;28;20033;-75
2023/09/26 01:16:56;;;;;;;7.68;3.83;;;;;;;16.18;61.48;100487.47;5044691;28;20364;-75
2023/09/26 01:19:21;;;;;;;6.72;3.22;;;;;;;16.21;61.50;100478.63;5044175;28;20088;-76
2023/09/26 01:21:47;;;;;;;9.40;3.28;;;;;;;16.29;61.38;100476.41;5045009;28;20100;-74
2023/09/26 01:24:13;;;;;;;6.40;3.00;;;;;;;16.32;60.95;100473.06;5043988;28;20037;-75
2023/09/26 01:26:38;;;;;;;5.60;3.28;;;;;;;16.35;61.03;100472.50;5044264;28;20044;-76
2023/09/26 01:29:06;;;;;;;17.15;5.07;;;;;;;16.29;61.22;100468.16;5044314;28;20037;-76
2023/09/26 01:31:34;;;;;;;7.07;2.90;;;;;;;16.24;61.27;100465.41;5044066;28;20032;-75
2023/09/26 01:33:59;;;;;;;5.57;3.05;;;;;;;16.20;61.72;100466.00;5043595;28;20550;-77
2023/09/26 01:36:26;;;;;;;6.28;3.45;;;;;;;16.22;61.53;100462.97;5044215;28;20127;-75
2023/09/26 01:38:53;;;;;;;7.63;3.03;;;;;;;16.16;61.44;100464.94;5044483;28;20665;-70
2023/09/26 01:41:18;;;;;;;8.43;3.08;;;;;;;16.21;61.61;100462.13;5044187;28;20033;-69
2023/09/26 01:43:43;;;;;;;7.70;3.83;;;;;;;16.20;61.33;100460.50;5043774;28;20075;-69
2023/09/26 01:46:09;;;;;;;7.72;3.70;;;;;;;16.22;61.44;100450.03;5043978;28;20246;-69
2023/09/26 01:48:34;;;;;;;11.63;3.80;;;;;;;16.21;61.28;100451.13;5043742;28;20040;-69
2023/09/26 01:50:59;;;;;;;7.05;3.60;;;;;;;16.12;61.64;100447.34;5043878;28;21168;-69
2023/09/26 01:53:25;;;;;;;5.93;3.47;;;;;;;16.12;61.76;100450.09;5043488;28;20056;-69
2023/09/26 01:55:50;;;;;;;8.00;4.00;;;;;;;16.19;61.67;100447.84;5044234;28;20270;-69
2023/09/26 01:58:15;;;;;;;9.35;3.30;;;;;;;16.26;61.56;100441.19;5043557;28;20288;-69
2023/09/26 02:00:41;;;;;;;6.10;3.90;;;;;;;16.30;61.26;100434.84;5043795;28;20406;-69
2023/09/26 02:03:06;;;;;;;11.07;5.43;;;;;;;16.42;60.95;100444.66;5044023;28;20254;-70
2023/09/26 02:05:31;;;;;;;17.27;9.70;;;;;;;16.38;61.04;100440.81;5043389;28;20045;-70
2023/09/26 02:07:56;;;;;;;12.60;6.78;;;;;;;16.54;60.65;100436.84;5043525;28;20490;-69
2023/09/26 02:10:22;;;;;;;19.98;12.98;;;;;;;16.72;60.26;100441.94;5043808;28;20818;-70
2023/09/26 02:12:50;;;;;;;18.67;11.55;;;;;;;16.81;60.08;100434.66;5043682;28;20033;-69
2023/09/26 02:15:16;;;;;;;20.60;11.15;;;;;;;16.74;60.08;100434.19;5041441;28;20064;-70
2023/09/26 02:17:42;;;;;;;18.95;11.75;;;;;;;16.72;60.32;100447.44;5042419;28;21640;-69
2023/09/26 02:20:14;;;;;;;16.50;9.88;;;;;;;16.76;59.66;100429.22;5043435;28;20037;-69
2023/09/26 02:22:58;;;;;;;21.88;13.20;;;;;;;16.71;60.26;100434.75;5043825;28;20036;-70
2023/09/26 02:25:23;;;;;;;18.23;10.85;;;;;;;16.67;60.32;100427.09;5043002;28;20451;-69
2023/09/26 02:27:50;;;;;;;20.02;12.38;;;;;;;16.65;60.28;100425.75;5043268;28;20036;-70
2023/09/26 02:30:28;;;;;;;23.15;14.90;;;;;;;16.66;60.57;100433.69;5043071;28;20024;-71
2023/09/26 02:32:53;;;;;;;21.00;13.60;;;;;;;16.65;60.36;100436.75;5043667;28;20123;-69
2023/09/26 02:35:19;;;;;;;21.20;11.98;;;;;;;16.66;60.37;100433.69;5042830;28;20475;-70
2023/09/26 02:37:45;;;;;;;24.92;14.75;;;;;;;16.65;60.25;100437.56;5043523;28;20039;-71
2023/09/26 02:40:11;;;;;;;25.35;14.70;;;;;;;16.60;60.49;100426.59;5043650;28;20086;-69
2023/09/26 02:42:37;;;;;;;26.52;16.45;;;;;;;16.41;60.77;100424.59;5043226;28;20033;-69
2023/09/26 02:45:04;;;;;;;23.95;14.25;;;;;;;16.36;60.95;100424.59;5042871;28;20067;-70
2023/09/26 02:47:29;;;;;;;30.35;15.82;;;;;;;16.37;61.13;100418.00;5043292;28;20039;-69
2023/09/26 02:49:54;;;;;;;32.95;16.27;;;;;;;16.36;60.83;100419.09;5042902;28;20437;-70
2023/09/26 02:52:22;;;;;;;31.93;18.57;;;;;;;16.37;61.00;100420.75;5043361;28;20092;-69
2023/09/26 02:54:47;;;;;;;28.27;16.67;;;;;;;16.27;61.37;100416.13;5042316;28;20287;-71
2023/09/26 02:57:13;;;;;;;21.60;14.43;;;;;;;16.24;61.40;100413.16;5043424;28;20032;-70
2023/09/26 02:59:38;;;;;;;25.25;15.77;;;;;;;16.06;61.98;100421.81;5042982;28;20498;-70
2023/09/26 03:02:03;;;;;;;23.23;14.53;;;;;;;16.15;61.75;100422.00;5042957;28;20036;-69
2023/09/26 03:04:28;;;;;;;22.67;14.80;;;;;;;16.14;61.86;100422.31;5042675;28;20285;-70
2023/09/26 03:06:54;;;;;;;24.40;14.23;;;;;;;16.03;62.00;100424.31;5042723;28;20278;-70
2023/09/26 03:09:19;;;;;;;20.70;12.77;;;;;;;15.93;61.67;100422.41;5042529;28;20323;-70
2023/09/26 03:11:44;;;;;;;24.05;14.75;;;;;;;15.93;61.91;100423.22;5042548;28;20266;-69
2023/09/26 03:14:10;;;;;;;19.25;11.45;;;;;;;15.90;62.24;100423.81;5042355;28;20033;-69
2023/09/26 03:16:36;;;;;;;21.40;12.07;;;;;;;15.79;62.48;100434.03;5042882;28;20568;-69
2023/09/26 03:19:01;;;;;;;22.20;13.32;;;;;;;15.76;62.83;100435.44;5042821;28;20033;-70
2023/09/26 03:21:27;;;;;;;19.38;12.40;;;;;;;15.80;62.67;100437.63;5042586;28;20036;-70
2023/09/26 03:23:52;;;;;;;15.75;10.73;;;;;;;15.83;62.70;100431.53;5042562;28;20048;-71
2023/09/26 03:26:17;;;;;;;16.93;10.33;;;;;;;15.85;62.70;100419.16;5042653;28;20119;-70
2023/09/26 03:28:43;;;;;;;16.73;10.30;;;;;;;15.76;62.50;100424.44;5042731;28;20312;-70
2023/09/26 03:31:09;;;;;;;14.63;9.27;;;;;;;15.66;62.78;100426.44;5042396;28;20822;-70
2023/09/26 03:33:34;;;;;;;13.85;8.45;;;;;;;15.64;63.07;100421.22;5041774;28;20036;-69
2023/09/26 03:36:00;;;;;;;14.23;8.70;;;;;;;15.76;62.62;100418.94;5042542;28;20037;-69
2023/09/26 03:38:25;;;;;;;14.13;9.18;;;;;;;15.58;63.72;100416.84;5042247;28;20036;-69
2023/09/26 03:41:01;;;;;;;14.77;9.75;;;;;;;15.82;63.10;100419.75;5042147;28;20410;-69
2023/09/26 03:43:28;;;;;;;16.80;9.43;;;;;;;15.84;62.84;100413.97;5043332;28;20029;-71
2023/09/26 03:46:04;;;;;;;17.38;9.88;;;;;;;15.86;62.79;100414.50;5046378;28;20040;-69
2023/09/26 03:48:30;;;;;;;14.98;9.18;;;;;;;15.83;62.70;100406.81;5046460;28;20120;-69
2023/09/26 03:50:56;;;;;;;14.43;8.23;;;;;;;15.85;63.11;100405.41;5046947;28;20221;-69
2023/09/26 03:53:21;;;;;;;14.50;8.43;;;;;;;15.79;62.75;100405.72;5046040;28;20147;-69
2023/09/26 03:55:54;;;;;;;13.18;8.10;;;;;;;15.83;62.39;100401.31;5045861;28;20037;-69
2023/09/26 03:58:20;;;;;;;16.33;7.28;;;;;;;15.83;63.27;100404.88;5046079;28;20037;-69
2023/09/26 04:00:45;;;;;;;10.45;6.60;;;;;;;15.84;62.86;100401.03;5046137;28;20043;-69
2023/09/26 04:03:11;;;;;;;11.40;6.53;;;;;;;15.93;62.65;100400.41;5046273;28;20044;-70
2023/09/26 04:05:36;;;;;;;12.82;6.50;;;;;;;16.14;62.07;100401.13;5045356;28;20280;-69
2023/09/26 04:08:01;;;;;;;12.67;5.33;;;;;;;16.28;62.06;100400.47;5046554;28;20452;-69
2023/09/26 04:10:26;;;;;;;8.90;4.50;;;;;;;16.29;61.71;100402.13;5045776;28;20254;-69
2023/09/26 04:12:52;;;;;;;9.77;6.03;;;;;;;16.32;61.68;100398.78;5045545;28;20265;-70
2023/09/26 04:15:17;;;;;;;12.10;7.30;;;;;;;16.24;61.26;100400.22;5045349;28;20290;-69
2023/09/26 04:17:42;;;;;;;11.15;6.22;;;;;;;16.29;61.66;100404.88;5045927;28;20349;-70
2023/09/26 04:20:19;;;;;;;12.50;5.90;;;;;;;16.30;61.52;100406.50;5045575;28;20048;-69
2023/09/26 04:22:45;;;;;;;10.20;5.57;;;;;;;16.34;61.46;100399.31;5045787;28;20262;-69
2023/09/26 04:25:10;;;;;;;7.97;4.53;;;;;;;16.40;61.41;100405.59;5044606;28;20053;-69
2023/09/26 04:27:35;;;;;;;9.25;4.82;;;;;;;16.45;61.08;100403.59;5045414;28;20037;-69
2023/09/26 04:30:00;;;;;;;8.52;5.13;;;;;;;16.42;61.34;100398.69;5045391;28;20041;-69
2023/09/26 04:32:26;;;;;;;7.50;4.33;;;;;;;16.32;61.55;100396.84;5045585;28;20124;-69
2023/09/26 04:34:52;;;;;;;10.02;4.95;;;;;;;16.37;61.47;100382.25;5044787;28;21209;-69
2023/09/26 04:37:17;;;;;;;8.98;5.25;;;;;;;16.41;61.46;100397.06;5045157;28;20059;-69
2023/09/26 04:39:43;;;;;;;8.67;4.83;;;;;;;16.42;61.15;100389.59;5045062;28;20024;-69
2023/09/26 04:42:08;;;;;;;8.10;3.97;;;;;;;16.34;61.31;100383.63;5044491;28;20258;-69
2023/09/26 04:44:33;;;;;;;7.30;4.30;;;;;;;16.45;61.10;100392.59;5045014;28;20270;-69
2023/09/26 04:46:58;;;;;;;7.53;4.57;;;;;;;16.50;60.66;100379.91;5044990;28;20285;-69
2023/09/26 04:49:24;;;;;;;18.53;4.50;;;;;;;16.41;60.77;100377.81;5045298;28;20612;-69
2023/09/26 04:51:49;;;;;;;9.90;4.38;;;;;;;16.47;60.79;100386.81;5044961;28;21169;-69
2023/09/26 04:54:15;;;;;;;6.30;4.00;;;;;;;16.34;61.00;100378.13;5043869;28;20032;-69
2023/09/26 04:56:40;;;;;;;6.78;3.80;;;;;;;16.32;61.29;100369.34;5044573;28;20270;-69
2023/09/26 04:59:06;;;;;;;8.57;4.18;;;;;;;16.22;61.17;100385.94;5045189;28;20033;-69
2023/09/26 05:01:31;;;;;;;6.87;4.17;;;;;;;16.16;61.66;100387.91;5045184;28;20041;-70
2023/09/26 05:03:56;;;;;;;8.68;5.35;;;;;;;16.09;61.86;100385.47;5044393;28;20410;-70
2023/09/26 05:06:21;;;;;;;9.55;5.68;;;;;;;16.10;61.41;100380.81;5044460;28;20532;-69
2023/09/26 05:08:47;;;;;;;8.13;4.13;;;;;;;15.93;62.51;100384.75;5044834;28;20033;-70
2023/09/26 05:11:16;;;;;;;9.93;6.65;;;;;;;15.76;62.41;100382.41;5044900;28;20286;-71
2023/09/26 05:13:42;;;;;;;11.02;5.82;;;;;;;15.68;62.82;100375.56;5044411;28;20025;-70
2023/09/26 05:16:09;;;;;;;10.75;4.57;;;;;;;15.60;63.17;100381.69;5044477;28;20486;-69
2023/09/26 05:18:34;;;;;;;8.07;5.05;;;;;;;15.47;63.21;100383.94;5044577;28;20086;-69
2023/09/26 05:21:05;;;;;;;7.70;4.75;;;;;;;15.38;63.60;100385.63;5044771;28;20041;-69
2023/09/26 05:23:30;;;;;;;10.20;5.40;;;;;;;15.34;63.45;100381.78;5044584;28;20040;-71
2023/09/26 05:26:04;;;;;;;9.68;4.95;;;;;;;15.36;64.04;100376.81;5043936;28;20497;-69
2023/09/26 05:28:29;;;;;;;13.15;4.78;;;;;;;15.42;63.62;100386.69;5045010;28;20056;-69
2023/09/26 05:30:54;;;;;;;9.40;4.90;;;;;;;15.41;63.74;100382.31;5044538;28;20095;-70
2023/09/26 05:33:19;;;;;;;10.30;4.67;;;;;;;15.50;63.75;100383.34;5044191;28;20265;-69
2023/09/26 05:35:45;;;;;;;7.93;4.90;;;;;;;15.56;63.63;100386.88;5044080;28;20285;-69
2023/09/26 05:38:10;;;;;;;7.53;4.07;;;;;;;15.55;63.51;100378.94;5043999;28;20270;-70
2023/09/26 05:40:35;;;;;;;10.60;4.53;;;;;;;15.51;63.71;100376.78;5043104;28;20806;-70
2023/09/26 05:43:00;;;;;;;6.97;4.63;;;;;;;15.63;63.65;100381.91;5044246;28;20273;-70
2023/09/26 05:45:26;;;;;;;11.57;4.83;;;;;;;15.70;63.06;100378.03;5043169;28;20266;-69
2023/09/26 05:47:51;;;;;;;13.23;5.28;;;;;;;15.68;63.45;100381.06;5044275;28;20249;-69
2023/09/26 05:50:17;;;;;;;7.88;4.47;;;;;;;15.80;63.40;100374.41;5044259;28;20062;-69
2023/09/26 05:52:42;;;;;;;9.87;5.93;;;;;;;15.86;63.14;100381.50;5043936;28;20588;-69
2023/09/26 05:55:07;;;;;;;8.07;5.03;;;;;;;15.92;62.90;100388.63;5043700;28;20277;-69
2023/09/26 05:57:33;;;;;;;12.27;5.75;;;;;;;15.99;62.72;100391.84;5044120;28;20270;-71
2023/09/26 05:59:58;;;;;;;13.07;5.00;;;;;;;16.03;62.67;100389.38;5044033;28;20080;-69
2023/09/26 06:02:24;;;;;;;8.03;4.67;;;;;;;16.14;62.43;100397.56;5043882;28;20103;-70
2023/09/26 06:04:50;;;;;;;10.63;5.25;;;;;;;16.22;62.26;100389.50;5043030;28;20365;-69
2023/09/26 06:07:16;;;;;;;11.77;4.78;;;;;;;16.22;62.18;100389.50;5043571;28;20040;-69
2023/09/26 06:09:41;;;;;;;10.07;5.28;;;;;;;16.14;62.78;100390.13;5042749;28;20044;-71
2023/09/26 06:12:06;;;;;;;8.02;4.30;;;;;;;16.07;62.90;100395.94;5043120;28;20037;-69
2023/09/26 06:14:33;;;;;;;10.73;4.88;;;;;;;16.00;63.63;100387.19;5043142;28;20128;-70
2023/09/26 06:16:58;;;;;;;8.50;4.97;;;;;;;15.97;63.61;100391.31;5043136;28;20047;-70
2023/09/26 06:19:23;;;;;;;9.43;4.80;;;;;;;16.07;63.56;100389.63;5043773;28;20051;-71
2023/09/26 06:21:49;;;;;;;6.90;4.37;;;;;;;16.13;63.22;100393.97;5043651;28;20266;-69
2023/09/26 06:24:14;;;;;;;7.32;4.50;;;;;;;16.29;62.72;100388.38;5042226;28;20771;-69
2023/09/26 06:26:39;;;;;;;7.70;4.00;;;;;;;16.47;61.42;100384.06;5043041;28;20040;-70
2023/09/26 06:29:05;;;;;;;7.63;4.23;;;;;;;16.60;61.53;100376.25;5043007;28;21019;-75
2023/09/26 06:31:30;;;;;;;8.48;3.90;;;;;;;16.68;61.57;100376.41;5043124;28;20732;-77
2023/09/26 06:34:00;;;;;;;8.27;4.00;;;;;;;16.75;60.82;100384.34;5042362;28;20032;-77
2023/09/26 06:36:30;;;;;;;6.90;4.15;;;;;;;16.79;61.25;100379.91;5043432;28;20269;-75
2023/09/26 06:38:55;;;;;;;6.85;3.97;;;;;;;16.82;61.23;100383.97;5042696;28;20083;-77
2023/09/26 06:41:20;;;;;;;7.40;4.40;;;;;;;16.91;60.57;100386.91;5043005;28;20087;-76
2023/09/26 06:43:46;;;;;;;7.63;3.87;;;;;;;16.96;60.75;100378.63;5042264;28;20273;-75
2023/09/26 06:46:11;;;;;;;8.87;4.10;;;;;;;17.01;60.16;100383.22;5043063;28;20352;-77
2023/09/26 06:48:41;;;;;;;7.30;4.00;;;;;;;17.11;59.98;100385.88;5043132;28;20281;-77
2023/09/26 06:51:08;;;;;;;7.22;4.03;;;;;;;17.09;60.55;100388.09;5042284;28;20282;-76
2023/09/26 06:53:34;;;;;;;8.93;4.43;;;;;;;17.09;60.57;100385.34;5042797;28;20033;-75
2023/09/26 06:56:04;;;;;;;7.13;4.43;;;;;;;17.15;60.34;100384.19;5042406;28;20481;-77
2023/09/26 06:58:30;;;;;;;7.45;3.03;;;;;;;17.26;60.03;100381.31;5043168;28;20036;-75
2023/09/26 07:00:55;;;;;;;6.15;3.65;;;;;;;17.34;59.52;100380.66;5042670;28;20021;-76
2023/09/26 07:03:20;;;;;;;9.20;3.47;;;;;;;17.36;59.34;100367.41;5042372;28;20175;-77
2023/09/26 07:05:46;;;;;;;5.83;3.30;;;;;;;17.48;59.27;100366.13;5042088;28;20053;-77
2023/09/26 07:08:14;;;;;;;8.30;3.92;;;;;;;17.59;59.12;100369.59;5042505;28;20264;-76
2023/09/26 07:10:39;;;;;;;7.70;4.28;;;;;;;17.66;59.03;100374.69;5042224;28;20460;-77
2023/09/26 07:13:05;;;;;;;9.20;4.40;;;;;;;17.71;58.60;100363.63;5042635;28;20033;-75
2023/09/26 07:15:31;;;;;;;6.63;3.38;;;;;;;17.74;58.47;100360.25;5042063;28;20064;-75
2023/09/26 07:17:58;;;;;;;6.40;3.78;;;;;;;17.76;58.30;100362.72;5041533;28;20036;-77
2023/09/26 07:20:24;;;;;;;11.77;4.53;;;;;;;17.78;58.32;100377.84;5042299;28;20491;-76
2023/09/26 07:22:50;;;;;;;6.10;3.42;;;;;;;17.77;58.31;100367.94;5042773;28;20039;-77
2023/09/26 07:25:15;;;;;;;6.40;4.20;;;;;;;17.79;58.50;100371.22;5041645;28;20043;-75
2023/09/26 07:27:40;;;;;;;7.38;3.63;;;;;;;17.77;58.77;100369.88;5042311;28;20254;-76
2023/09/26 07:30:08;;;;;;;5.80;3.72;;;;;;;17.85;58.49;100367.25;5042763;28;20141;-75
2023/09/26 07:32:34;;;;;;;7.05;3.90;;;;;;;17.99;58.41;100377.53;5042735;28;20035;-76
2023/09/26 07:34:59;;;;;;;7.35;3.38;;;;;;;18.06;58.31;100366.91;5042704;28;20037;-75
2023/09/26 07:37:24;;;;;;;8.23;3.33;;;;;;;18.08;58.45;100381.22;5042826;28;20039;-69
2023/09/26 07:39:51;;;;;;;6.15;3.78;;;;;;;18.14;58.52;100376.47;5042661;28;20048;-69
2023/09/26 07:42:18;;;;;;;5.57;3.30;;;;;;;18.17;58.50;100375.88;5042768;28;20037;-72
2023/09/26 07:44:43;;;;;;;7.78;3.03;;;;;;;18.22;58.34;100375.00;5040567;28;20126;-70
2023/09/26 07:47:09;;;;;;;9.93;3.70;;;;;;;18.30;58.04;100385.34;5042569;28;20465;-70
2023/09/26 07:49:34;;;;;;;7.00;4.05;;;;;;;18.27;57.96;100380.41;5042068;28;20543;-71
2023/09/26 07:51:59;;;;;;;7.30;4.00;;;;;;;18.30;57.54;100376.22;5042038;28;20649;-70
2023/09/26 07:54:25;;;;;;;7.25;4.72;;;;;;;18.37;58.22;100386.88;5041168;28;20025;-71
2023/09/26 07:56:50;;;;;;;8.40;3.97;;;;;;;18.42;58.24;100373.00;5042535;28;20119;-70
2023/09/26 07:59:16;;;;;;;6.82;3.58;;;;;;;18.49;58.36;100381.69;5042709;28;20029;-72
2023/09/26 08:01:42;;;;;;;4.88;2.92;;;;;;;18.49;58.49;100378.94;5041648;28;20462;-70
2023/09/26 08:04:07;;;;;;;8.35;4.32;;;;;;;18.51;58.27;100384.97;5041240;28;20132;-71
2023/09/26 08:06:33;;;;;;;8.82;3.65;;;;;;;18.55;58.44;100380.47;5039957;28;20238;-71
2023/09/26 08:08:58;;;;;;;8.70;4.15;;;;;;;18.61;58.29;100374.88;5041837;28;20041;-71
2023/09/26 08:11:27;;;;;;;8.47;4.03;;;;;;;18.67;58.55;100379.19;5042325;28;20597;-70
2023/09/26 08:13:54;;;;;;;8.15;3.97;;;;;;;18.68;58.78;100380.81;5041204;28;20273;-71
2023/09/26 08:16:20;;;;;;;7.53;4.30;;;;;;;18.75;58.51;100383.16;5041954;28;20079;-70
2023/09/26 08:18:45;;;;;;;7.13;4.10;;;;;;;18.78;58.28;100385.31;5042338;28;20363;-69
2023/09/26 08:21:11;;;;;;;8.25;4.18;;;;;;;18.82;58.55;100385.50;5040771;28;20036;-71
2023/09/26 08:23:36;;;;;;;9.00;4.38;;;;;;;18.82;59.18;100385.50;5040855;28;20029;-70
2023/09/26 08:26:06;;;;;;;7.07;3.83;;;;;;;18.82;58.85;100383.56;5041217;28;20402;-70
2023/09/26 08:28:32;;;;;;;5.93;3.65;;;;;;;18.86;58.67;100387.38;5042413;28;20335;-70
2023/09/26 08:31:03;;;;;;;7.78;4.05;;;;;;;18.94;58.79;100383.06;5046430;28;20040;-70
2023/09/26 08:33:29;;;;;;;7.63;4.20;;;;;;;19.04;58.77;100393.09;5045376;28;20333;-70
2023/09/26 08:35:54;;;;;;;5.18;2.65;;;;;;;19.02;58.35;100379.59;5045838;28;20624;-70
2023/09/26 08:38:19;;;;;;;6.70;3.10;;;;;;;19.16;58.06;100378.78;5045119;28;20471;-70
2023/09/26 08:40:48;;;;;;;6.68;3.08;;;;;;;19.26;58.41;100375.00;5045217;28;20259;-70
2023/09/26 08:43:14;;;;;;;6.75;2.70;;;;;;;19.33;57.81;100374.56;5044801;28;20029;-71
2023/09/26 08:45:40;;;;;;;16.38;3.40;;;;;;;19.41;57.60;100384.06;5044916;28;20085;-70
2023/09/26 08:48:06;;;;;;;10.95;3.40;;;;;;;19.42;57.57;100378.25;5045100;28;20075;-70
2023/09/26 08:50:31;;;;;;;7.30;2.72;;;;;;;19.48;57.68;100378.97;5044415;28;20029;-73
2023/09/26 08:52:59;;;;;;;10.65;3.60;;;;;;;19.54;57.60;100386.00;5045090;28;20885;-71
2023/09/26 08:55:25;;;;;;;6.10;2.50;;;;;;;19.58;57.25;100378.72;5044551;28;20545;-71
2023/09/26 08:57:51;;;;;;;8.95;3.35;;;;;;;19.64;56.90;100381.38;5045552;28;20131;-75
2023/09/26 09:00:19;;;;;;;4.95;2.72;;;;;;;19.70;56.63;100378.19;5045259;28;20029;-70
2023/09/26 09:02:44;;;;;;;39.20;4.38;;;;;;;19.74;56.42;100374.78;5045522;28;20033;-73
2023/09/26 09:05:09;;;;;;;6.50;2.45;;;;;;;19.76;56.51;100378.06;5044784;28;20071;-73
2023/09/26 09:07:40;;;;;;;4.53;2.70;;;;;;;19.82;56.57;100374.03;5045149;28;20453;-73
2023/09/26 09:10:13;;;;;;;7.82;3.22;;;;;;;19.89;56.09;100376.38;5045538;28;20029;-72
2023/09/26 09:12:40;;;;;;;9.43;3.00;;;;;;;19.91;56.16;100374.13;5045440;28;20122;-73
2023/09/26 09:15:15;;;;;;;12.00;2.92;;;;;;;19.97;55.50;100366.50;5044572;28;20033;-73
2023/09/26 09:17:44;;;;;;;6.70;2.75;;;;;;;20.01;56.19;100370.28;5044871;28;20044;-72
2023/09/26 09:20:10;;;;;;;6.70;2.92;;;;;;;20.04;56.63;100358.56;5045088;28;20178;-72
2023/09/26 09:22:36;;;;;;;6.03;3.10;;;;;;;20.09;56.24;100352.13;5044742;28;20033;-72
2023/09/26 09:25:02;;;;;;;7.47;2.78;;;;;;;20.15;56.09;100346.16;5044355;28;20045;-72
2023/09/26 09:27:34;;;;;;;6.90;3.10;;;;;;;20.17;55.63;100338.38;5044790;28;20290;-72
2023/09/26 09:30:04;;;;;;;4.00;2.35;;;;;;;20.24;55.53;100337.09;5044714;28;20426;-72
2023/09/26 09:32:30;;;;;;;7.53;3.10;;;;;;;20.32;55.79;100339.06;5044449;28;20037;-72
2023/09/26 09:34:55;;;;;;;7.07;2.92;;;;;;;20.38;56.07;100328.69;5043306;28;20118;-72
2023/09/26 09:37:20;;;;;;;6.03;2.65;;;;;;;20.42;56.02;100327.72;5044662;28;20033;-71
2023/09/26 09:39:47;;;;;;;4.40;2.67;;;;;;;20.55;55.59;100327.13;5044667;28;20041;-71
2023/09/26 09:42:12;;;;;;;5.60;2.28;;;;;;;20.61;55.94;100326.69;5043436;28;20063;-74
2023/09/26 09:44:38;;;;;;;5.43;3.28;;;;;;;20.61;55.57;100329.44;5043972;28;20049;-72
2023/09/26 09:47:04;;;;;;;5.18;3.00;;;;;;;20.65;55.10;100327.66;5044279;28;20033;-72
2023/09/26 09:49:32;;;;;;;5.95;2.75;;;;;;;20.60;55.15;100327.81;5044558;28;20037;-72
2023/09/26 09:52:04;;;;;;;6.30;3.38;;;;;;;20.65;54.84;100319.38;5044740;28;20175;-72
2023/09/26 09:54:33;;;;;;;5.13;2.72;;;;;;;20.70;54.74;100320.34;5043765;28;20028;-71
2023/09/26 09:57:03;;;;;;;8.27;3.00;;;;;;;20.77;54.62;100318.75;5044300;28;20033;-78
2023/09/26 09:59:31;;;;;;;6.32;2.35;;;;;;;20.82;54.36;100320.56;5044104;28;20029;-71
2023/09/26 10:01:56;;;;;;;7.00;2.55;;;;;;;20.93;54.55;100323.03;5044215;28;20043;-72
2023/09/26 10:04:23;;;;;;;7.07;3.50;;;;;;;21.01;54.33;100316.75;5043653;28;20044;-71
2023/09/26 10:06:49;;;;;;;5.47;2.60;;;;;;;21.10;54.66;100312.00;5043412;28;20048;-72
2023/09/26 10:09:19;;;;;;;4.05;2.55;;;;;;;21.18;54.42;100309.56;5044139;28;20432;-72
2023/09/26 10:11:44;;;;;;;4.97;2.50;;;;;;;21.27;54.22;100304.88;5043829;28;20673;-73
2023/09/26 10:14:12;;;;;;;6.47;2.58;;;;;;;21.34;54.55;100310.72;5042734;28;20041;-72
2023/09/26 10:16:37;;;;;;;6.53;2.30;;;;;;;21.42;53.96;100305.50;5042587;28;20434;-72
2023/09/26 10:19:03;;;;;;;6.18;3.53;;;;;;;21.41;53.05;100299.16;5043671;28;20041;-72
2023/09/26 10:21:31;;;;;;;5.65;2.83;;;;;;;21.45;52.71;100300.16;5043986;28;20029;-72
2023/09/26 10:24:05;;;;;;;6.28;2.03;;;;;;;21.50;52.02;100296.38;5042882;28;20043;-73
2023/09/26 10:26:31;;;;;;;4.15;2.17;;;;;;;21.60;52.35;100297.22;5043659;28;20549;-74
2023/09/26 10:29:21;;;;;;;4.10;2.33;;;;;;;21.62;50.72;100289.38;5043278;28;20700;-73
2023/09/26 10:31:53;;;;;;;4.47;2.38;;;;;;;21.66;51.43;100293.13;5042949;28;20071;-71
2023/09/26 10:34:22;;;;;;;4.70;1.95;;;;;;;21.77;51.52;100282.50;5042873;28;20082;-71
2023/09/26 10:36:47;;;;;;;2.88;1.90;;;;;;;21.79;50.88;100285.75;5043387;28;20127;-72
2023/09/26 10:39:13;;;;;;;6.80;2.77;;;;;;;21.83;50.83;100299.81;5043774;28;20207;-72
2023/09/26 10:41:39;;;;;;;6.35;1.92;;;;;;;21.96;50.77;100293.28;5043475;28;20293;-74
2023/09/26 10:44:04;;;;;;;6.50;2.83;;;;;;;22.04;50.95;100291.63;5044661;28;21171;-78
2023/09/26 10:48:06;;;;;;;8.52;2.50;;;;;;;22.17;50.71;100292.53;5096202;27;20366;-76
2023/09/26 10:50:32;;;;;;;3.95;2.28;;;;;;;22.26;50.46;100279.47;5086721;28;20470;-77
2023/09/26 10:52:57;;;;;;;4.60;2.05;;;;;;;22.34;49.47;100277.78;5086307;28;20032;-78
2023/09/26 10:55:23;;;;;;;9.95;2.20;;;;;;;22.35;49.22;100284.19;5086168;28;20555;-70
2023/09/26 10:57:51;;;;;;;5.20;2.23;;;;;;;22.37;48.20;100279.09;5079961;28;20047;-71
2023/09/26 11:00:17;;;;;;;6.00;1.80;;;;;;;22.44;48.66;100287.72;5080015;28;20241;-72
2023/09/26 11:02:44;;;;;;;3.80;2.28;;;;;;;22.50;48.59;100285.56;5080163;28;20693;-70
2023/09/26 11:05:11;;;;;;;6.03;2.20;;;;;;;22.54;48.25;100283.75;5079272;28;20109;-71
2023/09/26 11:07:38;;;;;;;4.15;1.90;;;;;;;22.58;47.10;100286.66;5079777;28;20040;-71
2023/09/26 11:10:03;;;;;;;4.40;2.15;;;;;;;22.65;46.67;100286.16;5078683;28;20032;-73
2023/09/26 11:12:30;;;;;;;4.43;2.08;;;;;;;22.74;46.43;100281.38;5078145;28;20043;-73
2023/09/26 11:14:55;;;;;;;3.42;1.83;;;;;;;22.82;46.58;100279.72;5079281;28;20032;-72
2023/09/26 11:17:21;;;;;;;5.47;1.98;;;;;;;22.88;46.11;100272.84;5079598;28;20097;-72
2023/09/26 11:19:46;;;;;;;5.32;2.03;;;;;;;23.05;46.36;100271.88;5079703;28;20075;-71